createdAt,value
2016-12-03T00:00:11.809Z,3.94
2016-12-03T00:01:11.773Z,3.95
2016-12-03T00:02:11.769Z,3.92
2016-12-03T00:03:11.768Z,3.68
2016-12-03T00:04:11.761Z,3.67
2016-12-03T00:05:11.757Z,3.56
2016-12-03T00:06:11.753Z,3.48
2016-12-03T00:07:11.748Z,3.27
2016-12-03T00:08:11.745Z,3.26
2016-12-03T00:09:11.740Z,3.26
2016-12-03T00:10:11.413Z,3.13
2016-12-03T00:11:11.408Z,2.98
2016-12-03T00:12:11.732Z,3
2016-12-03T00:13:11.728Z,2.95
2016-12-03T00:14:11.724Z,2.91
2016-12-03T00:15:11.724Z,2.85
2016-12-03T00:16:11.720Z,2.9
2016-12-03T00:17:11.388Z,2.85
2016-12-03T00:18:11.711Z,2.8
2016-12-03T00:19:11.708Z,2.76
2016-12-03T00:20:11.372Z,2.73
2016-12-03T00:21:11.700Z,2.7
2016-12-03T00:22:11.692Z,2.8
2016-12-03T00:23:11.368Z,2.73
2016-12-03T00:24:11.688Z,2.83
2016-12-03T00:25:11.684Z,2.77
2016-12-03T00:26:11.356Z,2.76
2016-12-03T00:27:11.352Z,2.82
2016-12-03T00:28:11.672Z,2.79
2016-12-03T00:29:11.667Z,2.85
2016-12-03T00:30:11.663Z,2.82
2016-12-03T00:31:11.664Z,2.82
2016-12-03T00:32:11.659Z,2.82
2016-12-03T00:33:11.656Z,2.82
2016-12-03T00:34:11.656Z,2.72
2016-12-03T00:35:11.648Z,2.8
2016-12-03T00:36:11.644Z,2.88
2016-12-03T00:37:11.646Z,2.77
2016-12-03T00:38:11.312Z,2.88
2016-12-03T00:39:11.307Z,2.88
2016-12-03T00:40:11.631Z,2.91
2016-12-03T00:41:11.300Z,2.79
2016-12-03T00:42:11.624Z,2.87
2016-12-03T00:43:11.620Z,2.87
2016-12-03T00:44:11.616Z,2.8
2016-12-03T00:45:11.292Z,2.8
2016-12-03T00:46:11.280Z,2.91
2016-12-03T00:47:11.280Z,2.94
2016-12-03T00:48:11.599Z,2.94
2016-12-03T00:49:11.595Z,3.06
2016-12-03T00:50:11.268Z,3.03
2016-12-03T00:51:11.588Z,3.12
2016-12-03T00:52:11.584Z,3.12
2016-12-03T00:53:11.258Z,3.18
2016-12-03T00:54:11.580Z,3.16
2016-12-03T00:55:11.572Z,3.26
2016-12-03T00:56:11.572Z,3.4
2016-12-03T00:57:11.572Z,3.26
2016-12-03T00:58:11.564Z,3.36
2016-12-03T00:59:11.560Z,3.34
2016-12-03T01:00:11.556Z,3.53
2016-12-03T01:01:11.583Z,3.46
2016-12-03T01:02:11.548Z,3.59
2016-12-03T01:03:11.544Z,3.64
2016-12-03T01:04:11.540Z,3.76
2016-12-03T01:05:11.540Z,3.94
2016-12-03T01:06:11.536Z,3.88
2016-12-03T01:07:11.528Z,3.95
2016-12-03T01:08:11.532Z,4.02
2016-12-03T01:09:11.200Z,4.1
2016-12-03T01:10:11.543Z,4.14
2016-12-03T01:11:11.521Z,4.25
2016-12-03T01:12:11.512Z,4.18
2016-12-03T01:13:11.512Z,4.28
2016-12-03T01:14:11.504Z,4.27
2016-12-03T01:15:11.500Z,4.4
2016-12-03T01:16:11.497Z,4.39
2016-12-03T01:17:11.492Z,4.45
2016-12-03T01:18:11.492Z,4.38
2016-12-03T01:19:11.488Z,4.38
2016-12-03T01:20:11.484Z,4.31
2016-12-03T01:21:11.480Z,4.42
2016-12-03T01:22:11.152Z,4.34
2016-12-03T01:23:11.148Z,4.34
2016-12-03T01:24:11.668Z,4.34
2016-12-03T01:25:11.464Z,4.39
2016-12-03T01:26:11.460Z,4.4
2016-12-03T01:27:11.461Z,4.38
2016-12-03T01:28:11.453Z,4.48
2016-12-03T01:29:11.449Z,4.49
2016-12-03T01:30:11.448Z,4.42
2016-12-03T01:31:11.121Z,4.5
2016-12-03T01:32:11.440Z,4.5
2016-12-03T01:33:11.112Z,4.53
2016-12-03T01:34:11.433Z,4.49
2016-12-03T01:35:10.777Z,4.49
2016-12-03T01:36:11.425Z,4.42
2016-12-03T01:37:11.421Z,4.39
2016-12-03T01:38:11.417Z,4.39
2016-12-03T01:39:11.092Z,4.39
2016-12-03T01:40:11.409Z,4.4
2016-12-03T01:41:11.409Z,4.34
2016-12-03T01:42:11.405Z,4.31
2016-12-03T01:43:11.401Z,4.25
2016-12-03T01:44:11.405Z,4.31
2016-12-03T01:45:11.393Z,4.28
2016-12-03T01:46:11.393Z,4.24
2016-12-03T01:47:11.389Z,4.24
2016-12-03T01:48:11.381Z,4.21
2016-12-03T01:49:11.377Z,4.18
2016-12-03T01:50:11.373Z,4.2
2016-12-03T01:51:11.041Z,4.2
2016-12-03T01:52:11.374Z,4.22
2016-12-03T01:53:11.365Z,4.21
2016-12-03T01:54:11.361Z,4.22
2016-12-03T01:55:11.373Z,4.16
2016-12-03T01:56:11.354Z,4.22
2016-12-03T01:57:11.050Z,4.25
2016-12-03T01:58:11.350Z,4.21
2016-12-03T01:59:11.341Z,4.18
2016-12-03T02:00:11.022Z,4.14
2016-12-03T02:01:11.334Z,4.18
2016-12-03T02:02:11.338Z,4.2
2016-12-03T02:03:11.326Z,4.1
2016-12-03T02:04:11.326Z,4.03
2016-12-03T02:05:10.994Z,4.13
2016-12-03T02:06:11.318Z,4.04
2016-12-03T02:07:11.314Z,4.24
2016-12-03T02:08:10.986Z,4.16
2016-12-03T02:09:11.310Z,4.14
2016-12-03T02:10:11.302Z,4.13
2016-12-03T02:11:11.298Z,4.03
2016-12-03T02:12:11.294Z,4.09
2016-12-03T02:13:11.298Z,4.13
2016-12-03T02:14:10.966Z,4.14
2016-12-03T02:15:11.290Z,4.09
2016-12-03T02:16:11.282Z,4.14
2016-12-03T02:17:11.286Z,4.09
2016-12-03T02:18:11.274Z,4.07
2016-12-03T02:19:11.271Z,4.07
2016-12-03T02:20:11.266Z,4.07
2016-12-03T02:21:11.262Z,4.1
2016-12-03T02:22:11.258Z,4.07
2016-12-03T02:23:10.934Z,4.06
2016-12-03T02:24:10.931Z,4.13
2016-12-03T02:25:10.602Z,4.04
2016-12-03T02:26:11.247Z,4.04
2016-12-03T02:27:11.243Z,4.03
2016-12-03T02:28:10.911Z,4.03
2016-12-03T02:29:10.915Z,3.99
2016-12-03T02:30:11.231Z,4.06
2016-12-03T02:31:11.231Z,4.06
2016-12-03T02:32:11.223Z,4.06
2016-12-03T02:33:11.223Z,4.04
2016-12-03T02:34:11.215Z,4.02
2016-12-03T02:35:10.567Z,4.04
2016-12-03T02:36:11.211Z,4.04
2016-12-03T02:37:11.207Z,4.02
2016-12-03T02:38:11.203Z,4.04
2016-12-03T02:39:11.199Z,4.09
2016-12-03T02:40:11.195Z,4.02
2016-12-03T02:41:10.867Z,4.02
2016-12-03T02:42:11.191Z,4.03
2016-12-03T02:43:11.183Z,3.94
2016-12-03T02:44:10.867Z,3.96
2016-12-03T02:45:11.175Z,4
2016-12-03T02:46:11.175Z,3.96
2016-12-03T02:47:11.172Z,4.06
2016-12-03T02:48:11.176Z,3.91
2016-12-03T02:49:10.839Z,3.99
2016-12-03T02:50:11.159Z,4
2016-12-03T02:51:11.156Z,3.96
2016-12-03T02:52:11.152Z,4.02
2016-12-03T02:53:11.175Z,3.96
2016-12-03T02:54:11.143Z,3.91
2016-12-03T02:55:11.140Z,3.91
2016-12-03T02:56:11.136Z,3.95
2016-12-03T02:57:11.131Z,3.89
2016-12-03T02:58:10.808Z,3.86
2016-12-03T02:59:11.128Z,3.81
2016-12-03T03:00:11.124Z,3.82
2016-12-03T03:01:11.119Z,3.92
2016-12-03T03:02:11.115Z,3.78
2016-12-03T03:03:11.112Z,3.81
2016-12-03T03:04:10.780Z,3.76
2016-12-03T03:05:10.780Z,3.63
2016-12-03T03:06:11.100Z,3.7
2016-12-03T03:07:10.772Z,3.61
2016-12-03T03:08:11.096Z,3.61
2016-12-03T03:09:11.096Z,3.58
2016-12-03T03:10:11.084Z,3.56
2016-12-03T03:11:10.759Z,3.53
2016-12-03T03:12:10.752Z,3.45
2016-12-03T03:13:11.076Z,3.46
2016-12-03T03:14:10.748Z,3.52
2016-12-03T03:15:11.068Z,3.53
2016-12-03T03:16:11.067Z,3.53
2016-12-03T03:17:10.740Z,3.49
2016-12-03T03:18:10.736Z,3.52
2016-12-03T03:19:10.729Z,3.53
2016-12-03T03:20:11.052Z,3.49
2016-12-03T03:21:11.047Z,3.34
2016-12-03T03:22:11.040Z,3.49
2016-12-03T03:23:11.040Z,3.49
2016-12-03T03:24:11.036Z,3.53
2016-12-03T03:25:11.040Z,3.5
2016-12-03T03:26:11.028Z,3.5
2016-12-03T03:27:11.024Z,3.5
2016-12-03T03:28:10.696Z,3.52
2016-12-03T03:29:11.016Z,3.48
2016-12-03T03:30:10.692Z,3.5
2016-12-03T03:31:11.008Z,3.52
2016-12-03T03:32:11.004Z,3.59
2016-12-03T03:33:11.000Z,3.53
2016-12-03T03:34:11.000Z,3.59
2016-12-03T03:35:10.996Z,3.5
2016-12-03T03:36:10.992Z,3.53
2016-12-03T03:37:10.992Z,3.61
2016-12-03T03:38:10.989Z,3.59
2016-12-03T03:39:10.980Z,3.58
2016-12-03T03:40:10.664Z,3.61
2016-12-03T03:41:10.972Z,3.66
2016-12-03T03:42:10.968Z,3.59
2016-12-03T03:43:10.640Z,3.56
2016-12-03T03:44:10.960Z,3.61
2016-12-03T03:45:10.961Z,3.59
2016-12-03T03:46:10.959Z,3.58
2016-12-03T03:47:10.952Z,3.58
2016-12-03T03:48:10.948Z,3.61
2016-12-03T03:49:10.944Z,3.59
2016-12-03T03:50:10.940Z,3.63
2016-12-03T03:51:10.936Z,3.58
2016-12-03T03:52:10.964Z,3.58
2016-12-03T03:53:10.928Z,3.53
2016-12-03T03:54:10.924Z,3.66
2016-12-03T03:55:10.595Z,3.56
2016-12-03T03:56:10.915Z,3.59
2016-12-03T03:57:10.583Z,3.64
2016-12-03T03:58:10.911Z,3.63
2016-12-03T03:59:10.903Z,3.64
2016-12-03T04:00:10.903Z,3.59
2016-12-03T04:01:10.899Z,3.61
2016-12-03T04:02:10.901Z,3.66
2016-12-03T04:03:10.567Z,3.61
2016-12-03T04:04:10.886Z,3.64
2016-12-03T04:05:10.882Z,3.58
2016-12-03T04:06:10.878Z,3.64
2016-12-03T04:07:10.554Z,3.67
2016-12-03T04:08:10.874Z,3.58
2016-12-03T04:09:10.866Z,3.61
2016-12-03T04:10:10.870Z,3.59
2016-12-03T04:11:10.858Z,3.58
2016-12-03T04:12:10.853Z,3.58
2016-12-03T04:13:10.861Z,3.61
2016-12-03T04:14:10.846Z,3.66
2016-12-03T04:15:10.518Z,3.58
2016-12-03T04:16:10.837Z,3.61
2016-12-03T04:17:10.837Z,3.63
2016-12-03T04:18:10.509Z,3.58
2016-12-03T04:19:10.505Z,3.67
2016-12-03T04:20:10.501Z,3.61
2016-12-03T04:21:10.821Z,3.61
2016-12-03T04:22:10.817Z,3.68
2016-12-03T04:23:10.821Z,3.63
2016-12-03T04:24:10.813Z,3.61
2016-12-03T04:25:10.809Z,3.66
2016-12-03T04:26:10.809Z,3.61
2016-12-03T04:27:10.796Z,3.61
2016-12-03T04:28:10.800Z,3.59
2016-12-03T04:29:10.792Z,3.66
2016-12-03T04:30:10.788Z,3.58
2016-12-03T04:31:10.784Z,3.55
2016-12-03T04:32:10.776Z,3.53
2016-12-03T04:33:10.445Z,3.46
2016-12-03T04:34:10.452Z,3.37
2016-12-03T04:35:10.768Z,3.34
2016-12-03T04:36:10.440Z,3.34
2016-12-03T04:37:10.436Z,3.36
2016-12-03T04:38:10.760Z,3.37
2016-12-03T04:39:10.432Z,3.45
2016-12-03T04:40:10.425Z,3.34
2016-12-03T04:41:10.745Z,3.21
2016-12-03T04:42:10.741Z,3.19
2016-12-03T04:43:10.737Z,3.22
2016-12-03T04:44:10.409Z,3.12
2016-12-03T04:45:10.401Z,3.03
2016-12-03T04:46:10.725Z,3.12
2016-12-03T04:47:10.721Z,3.05
2016-12-03T04:48:10.721Z,3.03
2016-12-03T04:49:10.713Z,3.01
2016-12-03T04:50:10.709Z,3.05
2016-12-03T04:51:10.709Z,3.13
2016-12-03T04:52:10.709Z,3.05
2016-12-03T04:53:10.697Z,3.13
2016-12-03T04:54:10.697Z,3.09
2016-12-03T04:55:10.693Z,3.06
2016-12-03T04:56:10.689Z,3.05
2016-12-03T04:57:10.685Z,3.09
2016-12-03T04:58:10.358Z,3.09
2016-12-03T04:59:10.682Z,3.01
2016-12-03T05:00:10.686Z,2.98
2016-12-03T05:01:10.670Z,3.01
2016-12-03T05:02:10.687Z,3.01
2016-12-03T05:03:10.667Z,3.08
2016-12-03T05:04:10.658Z,3.15
2016-12-03T05:05:10.654Z,3.05
2016-12-03T05:06:10.650Z,3.15
2016-12-03T05:07:10.650Z,3.16
2016-12-03T05:08:10.646Z,3.16
2016-12-03T05:09:10.638Z,3.15
2016-12-03T05:10:10.318Z,3.18
2016-12-03T05:11:10.641Z,3.26
2016-12-03T05:12:10.302Z,3.22
2016-12-03T05:13:10.634Z,3.13
2016-12-03T05:14:10.623Z,3.19
2016-12-03T05:15:10.618Z,3.16
2016-12-03T05:16:10.618Z,3.15
2016-12-03T05:17:10.611Z,3.19
2016-12-03T05:18:10.282Z,3.16
2016-12-03T05:19:10.606Z,3.15
2016-12-03T05:20:10.274Z,3.21
2016-12-03T05:21:10.594Z,3.13
2016-12-03T05:22:10.270Z,3.26
2016-12-03T05:23:10.595Z,3.22
2016-12-03T05:24:10.586Z,3.26
2016-12-03T05:25:10.578Z,3.18
2016-12-03T05:26:10.579Z,3.19
2016-12-03T05:27:10.570Z,3.29
2016-12-03T05:28:10.567Z,3.24
2016-12-03T05:29:10.566Z,3.27
2016-12-03T05:30:10.559Z,3.4
2016-12-03T05:31:10.555Z,3.22
2016-12-03T05:32:10.555Z,3.31
2016-12-03T05:33:10.551Z,3.33
2016-12-03T05:34:10.543Z,3.26
2016-12-03T05:35:10.219Z,3.4
2016-12-03T05:36:10.535Z,3.29
2016-12-03T05:37:10.539Z,3.31
2016-12-03T05:38:10.539Z,3.15
2016-12-03T05:39:10.527Z,3.15
2016-12-03T05:40:10.523Z,3.3
2016-12-03T05:41:10.521Z,3.27
2016-12-03T05:42:10.515Z,3.36
2016-12-03T05:43:10.511Z,3.19
2016-12-03T05:44:10.507Z,3.21
2016-12-03T05:45:10.507Z,3.16
2016-12-03T05:46:10.507Z,3.26
2016-12-03T05:47:10.170Z,3.11
2016-12-03T05:48:10.495Z,3.18
2016-12-03T05:49:10.164Z,3.03
2016-12-03T05:50:10.487Z,3.13
2016-12-03T05:51:10.479Z,3
2016-12-03T05:52:10.151Z,3.12
2016-12-03T05:53:10.475Z,3.06
2016-12-03T05:54:10.468Z,3
2016-12-03T05:55:10.483Z,3.05
2016-12-03T05:56:10.460Z,3.05
2016-12-03T05:57:10.456Z,3.03
2016-12-03T05:58:10.452Z,3.09
2016-12-03T05:59:10.451Z,3.09
2016-12-03T06:00:10.444Z,3.08
2016-12-03T06:01:10.444Z,3.12
2016-12-03T06:02:10.436Z,3.06
2016-12-03T06:03:10.432Z,3.09
2016-12-03T06:04:10.104Z,3.05
2016-12-03T06:05:10.436Z,3.08
2016-12-03T06:06:09.772Z,2.98
2016-12-03T06:07:10.088Z,2.91
2016-12-03T06:08:10.416Z,3
2016-12-03T06:09:10.408Z,2.85
2016-12-03T06:10:10.409Z,2.79
2016-12-03T06:11:10.404Z,2.69
2016-12-03T06:12:10.400Z,2.69
2016-12-03T06:13:10.396Z,2.65
2016-12-03T06:14:10.392Z,2.51
2016-12-03T06:15:10.388Z,2.57
2016-12-03T06:16:10.384Z,2.58
2016-12-03T06:17:10.380Z,2.55
2016-12-03T06:18:10.377Z,2.47
2016-12-03T06:19:10.373Z,2.47
2016-12-03T06:20:10.376Z,2.33
2016-12-03T06:21:10.041Z,2.37
2016-12-03T06:22:10.365Z,2.32
2016-12-03T06:23:10.385Z,2.28
2016-12-03T06:24:10.033Z,2.22
2016-12-03T06:25:10.349Z,2.18
2016-12-03T06:26:10.349Z,2.07
2016-12-03T06:27:10.341Z,2.1
2016-12-03T06:28:10.013Z,2.01
2016-12-03T06:29:10.337Z,2.12
2016-12-03T06:30:10.330Z,2.04
2016-12-03T06:31:10.001Z,2.01
2016-12-03T06:32:10.322Z,1.93
2016-12-03T06:33:10.317Z,1.93
2016-12-03T06:34:09.990Z,1.88
2016-12-03T06:35:10.014Z,1.88
2016-12-03T06:36:10.306Z,1.92
2016-12-03T06:37:10.301Z,2
2016-12-03T06:38:09.974Z,1.89
2016-12-03T06:39:10.294Z,2
2016-12-03T06:40:10.306Z,2.03
2016-12-03T06:41:10.286Z,1.97
2016-12-03T06:42:10.282Z,2.01
2016-12-03T06:43:09.979Z,1.92
2016-12-03T06:44:10.303Z,2.03
2016-12-03T06:45:10.271Z,1.97
2016-12-03T06:46:09.943Z,2.01
2016-12-03T06:47:09.939Z,2.07
2016-12-03T06:48:10.259Z,2.08
2016-12-03T06:49:09.935Z,2.03
2016-12-03T06:50:10.251Z,2.05
2016-12-03T06:51:09.928Z,2.05
2016-12-03T06:52:10.252Z,2
2016-12-03T06:53:10.248Z,2
2016-12-03T06:54:09.912Z,2.07
2016-12-03T06:55:10.268Z,2.08
2016-12-03T06:56:10.232Z,2.03
2016-12-03T06:57:10.224Z,2.08
2016-12-03T06:58:10.225Z,2.07
2016-12-03T06:59:10.225Z,2.07
2016-12-03T07:00:10.213Z,2.01
2016-12-03T07:01:10.216Z,1.89
2016-12-03T07:02:10.209Z,1.84
2016-12-03T07:03:10.253Z,1.86
2016-12-03T07:04:10.197Z,1.86
2016-12-03T07:05:10.193Z,1.86
2016-12-03T07:06:10.194Z,1.86
2016-12-03T07:07:10.193Z,1.89
2016-12-03T07:08:10.182Z,1.85
2016-12-03T07:09:10.186Z,1.84
2016-12-03T07:10:10.178Z,1.88
2016-12-03T07:11:10.170Z,1.86
2016-12-03T07:12:10.170Z,1.85
2016-12-03T07:13:09.514Z,1.86
2016-12-03T07:14:09.834Z,1.85
2016-12-03T07:15:09.831Z,1.85
2016-12-03T07:16:09.827Z,1.84
2016-12-03T07:17:10.155Z,1.85
2016-12-03T07:18:10.151Z,1.82
2016-12-03T07:19:10.139Z,1.82
2016-12-03T07:20:10.339Z,1.86
2016-12-03T07:21:10.136Z,1.84
2016-12-03T07:22:10.132Z,1.81
2016-12-03T07:23:09.800Z,1.79
2016-12-03T07:24:10.120Z,1.89
2016-12-03T07:25:09.796Z,1.95
2016-12-03T07:26:09.809Z,1.85
2016-12-03T07:27:10.112Z,1.93
2016-12-03T07:28:10.104Z,1.85
2016-12-03T07:29:10.104Z,1.88
2016-12-03T07:30:10.097Z,1.84
2016-12-03T07:31:10.097Z,1.93
2016-12-03T07:32:10.089Z,1.88
2016-12-03T07:33:10.093Z,1.93
2016-12-03T07:34:10.081Z,1.93
2016-12-03T07:35:10.077Z,1.93
2016-12-03T07:36:10.077Z,1.93
2016-12-03T07:37:10.073Z,1.85
2016-12-03T07:38:10.070Z,1.85
2016-12-03T07:39:10.062Z,1.82
2016-12-03T07:40:09.742Z,1.78
2016-12-03T07:41:09.726Z,1.84
2016-12-03T07:42:10.050Z,1.79
2016-12-03T07:43:09.722Z,1.78
2016-12-03T07:44:09.718Z,1.84
2016-12-03T07:45:10.042Z,1.85
2016-12-03T07:46:10.039Z,1.88
2016-12-03T07:47:09.713Z,1.88
2016-12-03T07:48:10.027Z,1.88
2016-12-03T07:49:10.023Z,1.82
2016-12-03T07:50:10.023Z,1.86
2016-12-03T07:51:10.015Z,1.82
2016-12-03T07:52:09.688Z,1.97
2016-12-03T07:53:10.011Z,1.95
2016-12-03T07:54:10.007Z,1.95
2016-12-03T07:55:09.999Z,1.93
2016-12-03T07:56:09.675Z,1.93
2016-12-03T07:57:09.999Z,1.85
2016-12-03T07:58:09.988Z,1.86
2016-12-03T07:59:09.988Z,1.95
2016-12-03T08:00:09.984Z,1.85
2016-12-03T08:01:09.984Z,1.93
2016-12-03T08:02:09.652Z,1.89
2016-12-03T08:03:09.969Z,1.88
2016-12-03T08:04:09.964Z,1.86
2016-12-03T08:05:09.636Z,1.93
2016-12-03T08:06:09.956Z,2
2016-12-03T08:07:09.961Z,1.89
2016-12-03T08:08:09.949Z,1.97
2016-12-03T08:09:09.949Z,1.97
2016-12-03T08:10:09.617Z,2
2016-12-03T08:11:09.937Z,1.89
2016-12-03T08:12:09.933Z,1.98
2016-12-03T08:13:09.609Z,1.98
2016-12-03T08:14:09.601Z,2.04
2016-12-03T08:15:09.921Z,2.1
2016-12-03T08:16:09.921Z,2.1
2016-12-03T08:17:09.921Z,2.05
2016-12-03T08:18:09.586Z,2.07
2016-12-03T08:19:09.906Z,2.04
2016-12-03T08:20:09.906Z,2.08
2016-12-03T08:21:09.898Z,2.01
2016-12-03T08:22:09.909Z,2.14
2016-12-03T08:23:09.894Z,2.1
2016-12-03T08:24:09.890Z,2.04
2016-12-03T08:25:09.562Z,2.12
2016-12-03T08:26:09.882Z,2.18
2016-12-03T08:27:09.878Z,2.12
2016-12-03T08:28:09.882Z,2.03
2016-12-03T08:29:09.546Z,2.03
2016-12-03T08:30:09.866Z,2.16
2016-12-03T08:31:09.866Z,2.04
2016-12-03T08:32:09.858Z,2.14
2016-12-03T08:33:09.854Z,2.16
2016-12-03T08:34:09.850Z,2.12
2016-12-03T08:35:09.858Z,2.15
2016-12-03T08:36:09.843Z,2.14
2016-12-03T08:37:09.522Z,2.04
2016-12-03T08:38:09.834Z,2.15
2016-12-03T08:39:09.831Z,2.16
2016-12-03T08:40:09.826Z,2.19
2016-12-03T08:41:09.822Z,2.18
2016-12-03T08:42:09.822Z,2.15
2016-12-03T08:43:09.487Z,2.14
2016-12-03T08:44:09.814Z,2.23
2016-12-03T08:45:09.811Z,2.16
2016-12-03T08:46:09.802Z,2.22
2016-12-03T08:47:09.799Z,2.18
2016-12-03T08:48:09.795Z,2.19
2016-12-03T08:49:09.791Z,2.36
2016-12-03T08:50:09.786Z,2.26
2016-12-03T08:51:09.783Z,2.32
2016-12-03T08:52:09.458Z,2.36
2016-12-03T08:53:09.451Z,2.41
2016-12-03T08:54:09.771Z,2.4
2016-12-03T08:55:09.443Z,2.44
2016-12-03T08:56:09.767Z,2.47
2016-12-03T08:57:09.759Z,2.5
2016-12-03T08:58:09.435Z,2.46
2016-12-03T08:59:09.755Z,2.5
2016-12-03T09:00:09.755Z,2.52
2016-12-03T09:01:09.755Z,2.59
2016-12-03T09:02:09.743Z,2.62
2016-12-03T09:03:09.743Z,2.64
2016-12-03T09:04:09.735Z,2.64
2016-12-03T09:05:09.739Z,2.72
2016-12-03T09:06:09.403Z,2.76
2016-12-03T09:07:09.400Z,2.8
2016-12-03T09:08:09.720Z,3.03
2016-12-03T09:09:09.720Z,3.21
2016-12-03T09:10:09.711Z,3.48
2016-12-03T09:11:09.060Z,3.77
2016-12-03T09:12:09.711Z,4.03
2016-12-03T09:13:09.372Z,4.36
2016-12-03T09:14:09.700Z,4.67
2016-12-03T09:15:09.700Z,4.92
2016-12-03T09:16:09.688Z,5.23
2016-12-03T09:17:09.692Z,5.29
2016-12-03T09:18:09.684Z,5.36
2016-12-03T09:19:09.356Z,5.22
2016-12-03T09:20:09.676Z,5.01
2016-12-03T09:21:09.676Z,4.68
2016-12-03T09:22:09.668Z,4.57
2016-12-03T09:23:09.664Z,4.38
2016-12-03T09:24:09.336Z,4.13
2016-12-03T09:25:09.656Z,3.91
2016-12-03T09:26:09.652Z,3.82
2016-12-03T09:27:09.648Z,3.66
2016-12-03T09:28:09.648Z,3.53
2016-12-03T09:29:09.644Z,3.36
2016-12-03T09:30:09.664Z,3.4
2016-12-03T09:31:09.636Z,3.3
2016-12-03T09:32:09.634Z,3.36
2016-12-03T09:33:09.628Z,3.37
2016-12-03T09:34:09.300Z,3.34
2016-12-03T09:35:09.625Z,3.16
2016-12-03T09:36:09.616Z,3.19
2016-12-03T09:37:09.613Z,3.36
2016-12-03T09:38:09.285Z,3.29
2016-12-03T09:39:09.281Z,3.27
2016-12-03T09:40:09.616Z,3.29
2016-12-03T09:41:09.600Z,3.29
2016-12-03T09:42:09.597Z,3.33
2016-12-03T09:43:09.269Z,3.37
2016-12-03T09:44:09.589Z,3.4
2016-12-03T09:45:09.589Z,3.33
2016-12-03T09:46:09.581Z,3.34
2016-12-03T09:47:09.576Z,3.29
2016-12-03T09:48:09.581Z,3.36
2016-12-03T09:49:09.581Z,3.29
2016-12-03T09:50:09.605Z,3.26
2016-12-03T09:51:09.245Z,3.45
2016-12-03T09:52:09.561Z,3.18
2016-12-03T09:53:09.237Z,3.4
2016-12-03T09:54:09.228Z,3.41
2016-12-03T09:55:09.549Z,3.33
2016-12-03T09:56:09.549Z,3.36
2016-12-03T09:57:09.221Z,3.3
2016-12-03T09:58:09.540Z,3.33
2016-12-03T09:59:09.544Z,3.29
2016-12-03T10:00:09.736Z,3.36
2016-12-03T10:01:09.532Z,3.37
2016-12-03T10:02:09.200Z,3.52
2016-12-03T10:03:09.196Z,3.49
2016-12-03T10:04:09.520Z,3.46
2016-12-03T10:05:09.516Z,3.49
2016-12-03T10:06:09.520Z,3.53
2016-12-03T10:07:09.184Z,3.53
2016-12-03T10:08:09.508Z,3.55
2016-12-03T10:09:09.500Z,3.48
2016-12-03T10:10:09.172Z,3.55
2016-12-03T10:11:09.524Z,3.49
2016-12-03T10:12:09.168Z,3.46
2016-12-03T10:13:09.491Z,3.43
2016-12-03T10:14:09.484Z,3.5
2016-12-03T10:15:09.484Z,3.49
2016-12-03T10:16:09.476Z,3.53
2016-12-03T10:17:09.472Z,3.46
2016-12-03T10:18:09.468Z,3.37
2016-12-03T10:19:08.816Z,3.46
2016-12-03T10:20:09.144Z,3.45
2016-12-03T10:21:09.460Z,3.34
2016-12-03T10:22:09.139Z,3.33
2016-12-03T10:23:09.128Z,3.36
2016-12-03T10:24:09.132Z,3.43
2016-12-03T10:25:09.444Z,3.43
2016-12-03T10:26:09.111Z,3.46
2016-12-03T10:27:09.443Z,3.41
2016-12-03T10:28:09.435Z,3.5
2016-12-03T10:29:09.435Z,3.48
2016-12-03T10:30:09.435Z,3.5
2016-12-03T10:31:09.423Z,3.45
2016-12-03T10:32:09.423Z,3.49
2016-12-03T10:33:09.419Z,3.4
2016-12-03T10:34:09.094Z,3.49
2016-12-03T10:35:09.410Z,3.49
2016-12-03T10:36:09.406Z,3.45
2016-12-03T10:37:09.278Z,3.49
2016-12-03T10:38:09.402Z,3.49
2016-12-03T10:39:09.074Z,3.52
2016-12-03T10:40:09.589Z,3.64
2016-12-03T10:41:09.389Z,3.63
2016-12-03T10:42:09.385Z,3.67
2016-12-03T10:43:09.381Z,3.67
2016-12-03T10:44:09.380Z,3.73
2016-12-03T10:45:09.377Z,3.67
2016-12-03T10:46:09.369Z,3.63
2016-12-03T10:47:09.048Z,3.61
2016-12-03T10:48:09.360Z,3.58
2016-12-03T10:49:09.361Z,3.7
2016-12-03T10:50:09.360Z,3.73
2016-12-03T10:51:09.353Z,3.67
2016-12-03T10:52:09.024Z,3.58
2016-12-03T10:53:09.344Z,3.58
2016-12-03T10:54:09.340Z,3.63
2016-12-03T10:55:09.340Z,3.61
2016-12-03T10:56:09.336Z,3.64
2016-12-03T10:57:09.336Z,3.61
2016-12-03T10:58:09.328Z,3.67
2016-12-03T10:59:09.324Z,3.67
2016-12-03T11:00:09.000Z,3.74
2016-12-03T11:01:08.995Z,3.71
2016-12-03T11:02:09.311Z,3.85
2016-12-03T11:03:09.312Z,3.76
2016-12-03T11:04:08.983Z,3.76
2016-12-03T11:05:09.307Z,3.89
2016-12-03T11:06:09.310Z,3.89
2016-12-03T11:07:08.971Z,3.95
2016-12-03T11:08:09.295Z,3.96
2016-12-03T11:09:09.290Z,4.02
2016-12-03T11:10:08.967Z,4.06
2016-12-03T11:11:09.286Z,4.06
2016-12-03T11:12:09.278Z,4
2016-12-03T11:13:09.274Z,4.06
2016-12-03T11:14:09.274Z,4.04
2016-12-03T11:15:09.270Z,4.07
2016-12-03T11:16:09.266Z,4.03
2016-12-03T11:17:09.262Z,4.06
2016-12-03T11:18:09.258Z,4.1
2016-12-03T11:19:09.254Z,4.03
2016-12-03T11:20:09.254Z,4.13
2016-12-03T11:21:09.252Z,4.07
2016-12-03T11:22:09.246Z,4.06
2016-12-03T11:23:09.242Z,4.14
2016-12-03T11:24:09.238Z,4.12
2016-12-03T11:25:08.910Z,4.16
2016-12-03T11:26:09.262Z,4.14
2016-12-03T11:27:09.227Z,4.21
2016-12-03T11:28:09.230Z,4.27
2016-12-03T11:29:09.222Z,4.28
2016-12-03T11:30:09.219Z,4.3
2016-12-03T11:31:09.219Z,4.36
2016-12-03T11:32:09.210Z,4.48
2016-12-03T11:33:09.215Z,4.34
2016-12-03T11:34:09.343Z,4.34
2016-12-03T11:35:09.204Z,4.43
2016-12-03T11:36:09.203Z,4.52
2016-12-03T11:37:09.199Z,4.48
2016-12-03T11:38:09.199Z,4.52
2016-12-03T11:39:09.191Z,4.48
2016-12-03T11:40:09.195Z,4.46
2016-12-03T11:41:09.183Z,4.5
2016-12-03T11:42:09.183Z,4.46
2016-12-03T11:43:08.855Z,4.52
2016-12-03T11:44:09.211Z,4.53
2016-12-03T11:45:09.171Z,4.48
2016-12-03T11:46:08.844Z,4.46
2016-12-03T11:47:09.163Z,4.49
2016-12-03T11:48:09.191Z,4.56
2016-12-03T11:49:09.160Z,4.61
2016-12-03T11:50:08.831Z,4.6
2016-12-03T11:51:09.152Z,4.61
2016-12-03T11:52:09.148Z,4.74
2016-12-03T11:53:09.144Z,4.71
2016-12-03T11:54:09.148Z,4.68
2016-12-03T11:55:09.152Z,4.68
2016-12-03T11:56:09.136Z,4.76
2016-12-03T11:57:09.132Z,4.68
2016-12-03T11:58:08.804Z,4.67
2016-12-03T11:59:09.128Z,4.71
2016-12-03T12:00:09.125Z,4.66
2016-12-03T12:01:08.796Z,4.67
2016-12-03T12:02:09.121Z,4.66
2016-12-03T12:03:09.117Z,4.67
2016-12-03T12:04:09.109Z,4.75
2016-12-03T12:05:09.113Z,4.64
2016-12-03T12:06:09.105Z,4.63
2016-12-03T12:07:08.777Z,4.64
2016-12-03T12:08:09.101Z,4.67
2016-12-03T12:09:09.094Z,4.67
2016-12-03T12:10:09.098Z,4.74
2016-12-03T12:11:09.090Z,4.71
2016-12-03T12:12:09.090Z,4.64
2016-12-03T12:13:09.082Z,4.76
2016-12-03T12:14:09.078Z,4.74
2016-12-03T12:15:09.074Z,4.75
2016-12-03T12:16:09.074Z,4.83
2016-12-03T12:17:09.070Z,4.76
2016-12-03T12:18:09.071Z,4.86
2016-12-03T12:19:09.063Z,4.92
2016-12-03T12:20:09.058Z,4.9
2016-12-03T12:21:09.056Z,4.82
2016-12-03T12:22:09.051Z,4.92
2016-12-03T12:23:08.723Z,4.97
2016-12-03T12:24:09.051Z,4.86
2016-12-03T12:25:08.720Z,4.94
2016-12-03T12:26:09.039Z,4.9
2016-12-03T12:27:09.036Z,4.94
2016-12-03T12:28:09.048Z,4.9
2016-12-03T12:29:08.708Z,4.92
2016-12-03T12:30:09.028Z,4.98
2016-12-03T12:31:08.700Z,4.89
2016-12-03T12:32:09.060Z,4.98
2016-12-03T12:33:08.700Z,4.97
2016-12-03T12:34:08.693Z,4.95
2016-12-03T12:35:08.364Z,4.94
2016-12-03T12:36:09.009Z,4.92
2016-12-03T12:37:09.005Z,5.04
2016-12-03T12:38:09.016Z,4.98
2016-12-03T12:39:09.005Z,4.98
2016-12-03T12:40:08.997Z,5.04
2016-12-03T12:41:08.669Z,4.95
2016-12-03T12:42:08.993Z,4.9
2016-12-03T12:43:08.993Z,5
2016-12-03T12:44:08.989Z,5
2016-12-03T12:45:08.982Z,4.98
2016-12-03T12:46:09.011Z,5
2016-12-03T12:47:08.977Z,4.9
2016-12-03T12:48:08.645Z,4.94
2016-12-03T12:49:08.642Z,4.98
2016-12-03T12:50:08.965Z,5
2016-12-03T12:51:08.961Z,5.04
2016-12-03T12:52:08.969Z,4.98
2016-12-03T12:53:08.953Z,5.12
2016-12-03T12:54:08.957Z,5.05
2016-12-03T12:55:08.953Z,5.02
2016-12-03T12:56:08.945Z,5.01
2016-12-03T12:57:08.941Z,5.08
2016-12-03T12:58:08.617Z,5.05
2016-12-03T12:59:08.613Z,5.16
2016-12-03T13:00:08.937Z,5.05
2016-12-03T13:01:08.929Z,5.15
2016-12-03T13:02:08.600Z,5.15
2016-12-03T13:03:08.600Z,5.04
2016-12-03T13:04:08.920Z,5.07
2016-12-03T13:05:08.920Z,5.13
2016-12-03T13:06:08.912Z,5.13
2016-12-03T13:07:08.908Z,5.18
2016-12-03T13:08:08.904Z,5.13
2016-12-03T13:09:08.908Z,5.18
2016-12-03T13:10:08.908Z,5.2
2016-12-03T13:11:08.896Z,5.1
2016-12-03T13:12:08.564Z,5.05
2016-12-03T13:13:08.568Z,5.07
2016-12-03T13:14:08.888Z,5.22
2016-12-03T13:15:08.884Z,5.22
2016-12-03T13:16:08.555Z,5.07
2016-12-03T13:17:08.876Z,5.18
2016-12-03T13:18:08.879Z,5.18
2016-12-03T13:19:08.871Z,5.18
2016-12-03T13:20:08.867Z,5.13
2016-12-03T13:21:08.863Z,5.15
2016-12-03T13:22:08.859Z,5.16